createdAt,value
2019-03-29T00:00:17.555Z,77.11
2019-03-29T00:01:17.512Z,77.76
2019-03-29T00:02:17.557Z,77.7
2019-03-29T00:03:17.545Z,77.37
2019-03-29T00:04:17.603Z,77.71
2019-03-29T00:05:19.198Z,77.31
2019-03-29T00:06:17.589Z,77.31
2019-03-29T00:07:17.569Z,77.11
2019-03-29T00:08:17.542Z,77.58
2019-03-29T00:09:17.516Z,77.04
2019-03-29T00:10:17.529Z,77.44
2019-03-29T00:11:17.533Z,77.71
2019-03-29T00:12:18.778Z,77.14
2019-03-29T00:13:17.592Z,77.73
2019-03-29T00:14:17.668Z,77.53
2019-03-29T00:15:18.508Z,76.96
2019-03-29T00:16:17.511Z,76.9
2019-03-29T00:17:18.502Z,76.29
2019-03-29T00:18:17.513Z,76.94
2019-03-29T00:19:17.568Z,76.68
2019-03-29T00:20:17.549Z,76.38
2019-03-29T00:21:17.504Z,76.21
2019-03-29T00:22:17.583Z,75.99
2019-03-29T00:23:17.551Z,77.88
2019-03-29T00:24:17.538Z,77.57
2019-03-29T00:25:17.525Z,77.03
2019-03-29T00:26:17.654Z,76.59
2019-03-29T00:27:17.528Z,76.45
2019-03-29T00:28:17.480Z,77.3
2019-03-29T00:29:17.506Z,76.6
2019-03-29T00:30:17.592Z,76.57
2019-03-29T00:31:17.512Z,75.96
2019-03-29T00:32:17.562Z,75.8
2019-03-29T00:33:17.470Z,75.99
2019-03-29T00:34:17.470Z,75.86
2019-03-29T00:35:18.382Z,75.79
2019-03-29T00:36:17.612Z,75.45
2019-03-29T00:37:18.365Z,75.47
2019-03-29T00:38:17.492Z,76.26
2019-03-29T00:39:17.478Z,75.5
2019-03-29T00:40:17.482Z,76.2
2019-03-29T00:41:17.466Z,76.07
2019-03-29T00:42:18.432Z,75.51
2019-03-29T00:43:17.502Z,75.32
2019-03-29T00:44:17.471Z,75.75
2019-03-29T00:45:19.362Z,76.22
2019-03-29T00:46:17.503Z,76.71
2019-03-29T00:47:17.460Z,76.09
2019-03-29T00:48:17.468Z,76.22
2019-03-29T00:49:17.511Z,76.44
2019-03-29T00:50:17.492Z,76.34
2019-03-29T00:51:17.714Z,76.09
2019-03-29T00:52:17.443Z,76.37
2019-03-29T00:53:17.460Z,75.89
2019-03-29T00:54:17.464Z,76.35
2019-03-29T00:55:17.515Z,75.81
2019-03-29T00:56:17.491Z,75.56
2019-03-29T00:57:17.647Z,75.38
2019-03-29T00:58:17.461Z,75.24
2019-03-29T00:59:17.497Z,76.76
2019-03-29T01:00:17.475Z,75.82
2019-03-29T01:01:17.427Z,75.5
2019-03-29T01:02:19.030Z,76.39
2019-03-29T01:03:17.460Z,75.64
2019-03-29T01:04:17.421Z,76.18
2019-03-29T01:05:17.419Z,76.5
2019-03-29T01:06:17.432Z,76.15
2019-03-29T01:07:17.557Z,76.69
2019-03-29T01:08:17.441Z,77.37
2019-03-29T01:09:17.442Z,77
2019-03-29T01:10:17.417Z,76.8
2019-03-29T01:11:17.427Z,77.08
2019-03-29T01:12:17.487Z,76.79
2019-03-29T01:13:17.457Z,76.9
2019-03-29T01:14:17.452Z,76.22
2019-03-29T01:15:17.522Z,77.05
2019-03-29T01:16:17.404Z,76.92
2019-03-29T01:17:17.404Z,77.4
2019-03-29T01:18:17.723Z,77.73
2019-03-29T01:19:17.620Z,77.28
2019-03-29T01:20:17.466Z,77.46
2019-03-29T01:21:17.506Z,76.8
2019-03-29T01:22:17.456Z,77.41
2019-03-29T01:23:17.386Z,77.29
2019-03-29T01:24:17.461Z,77.98
2019-03-29T01:25:17.388Z,76.94
2019-03-29T01:26:17.555Z,76.66
2019-03-29T01:27:17.415Z,77.04
2019-03-29T01:28:17.405Z,77.83
2019-03-29T01:29:17.426Z,78.03
2019-03-29T01:30:18.790Z,77.31
2019-03-29T01:31:17.632Z,77.43
2019-03-29T01:32:17.408Z,78.02
2019-03-29T01:33:17.575Z,78.68
2019-03-29T01:34:17.475Z,78.53
2019-03-29T01:35:17.441Z,78.37
2019-03-29T01:36:17.413Z,77.56
2019-03-29T01:37:17.421Z,77.2
2019-03-29T01:38:24.768Z,78.01
2019-03-29T01:39:17.471Z,77.73
2019-03-29T01:40:17.516Z,77.73
2019-03-29T01:41:17.369Z,78.26
2019-03-29T01:42:19.230Z,78.44
2019-03-29T01:43:17.416Z,78.16
2019-03-29T01:44:18.268Z,77.77
2019-03-29T01:45:17.489Z,78.29
2019-03-29T01:46:17.387Z,77.77
2019-03-29T01:47:17.364Z,77.9
2019-03-29T01:48:17.355Z,78.52
2019-03-29T01:49:17.541Z,78.3
2019-03-29T01:50:17.346Z,77.91
2019-03-29T01:51:17.445Z,78.08
2019-03-29T01:52:17.361Z,78.4
2019-03-29T01:53:17.373Z,77.82
2019-03-29T01:54:17.389Z,77.89
2019-03-29T01:55:17.433Z,78.25
2019-03-29T01:56:17.457Z,78.23
2019-03-29T01:57:17.402Z,78
2019-03-29T01:58:17.337Z,77.96
2019-03-29T01:59:17.401Z,78.15
2019-03-29T02:00:17.627Z,78.09
2019-03-29T02:01:17.399Z,77.75
2019-03-29T02:02:17.557Z,77.44
2019-03-29T02:03:17.322Z,77.94
2019-03-29T02:04:17.380Z,77.77
2019-03-29T02:05:17.434Z,78.21
2019-03-29T02:06:17.502Z,77.69
2019-03-29T02:07:17.389Z,77.22
2019-03-29T02:08:17.378Z,76.95
2019-03-29T02:09:17.372Z,76.89
2019-03-29T02:10:17.438Z,77.54
2019-03-29T02:11:17.528Z,77.82
2019-03-29T02:12:17.344Z,77.97
2019-03-29T02:13:17.349Z,77.61
2019-03-29T02:14:18.439Z,77.95
2019-03-29T02:15:17.399Z,78.3
2019-03-29T02:16:17.323Z,78.57
2019-03-29T02:17:17.366Z,78.72
2019-03-29T02:18:17.346Z,77.99
2019-03-29T02:19:17.377Z,78.31
2019-03-29T02:20:17.334Z,77.72
2019-03-29T02:21:17.440Z,78.63
2019-03-29T02:22:17.379Z,78.13
2019-03-29T02:23:17.352Z,77.87
2019-03-29T02:24:17.459Z,77.96
2019-03-29T02:25:17.422Z,78.68
2019-03-29T02:26:17.343Z,79.29
2019-03-29T02:27:17.331Z,78.69
2019-03-29T02:28:18.963Z,80
2019-03-29T02:29:17.322Z,79.29
2019-03-29T02:30:17.309Z,79.7
2019-03-29T02:31:17.428Z,79.99
2019-03-29T02:32:17.983Z,79.78
2019-03-29T02:33:17.351Z,79.86
2019-03-29T02:34:17.360Z,79.69
2019-03-29T02:35:17.463Z,79.6
2019-03-29T02:36:17.351Z,79.1
2019-03-29T02:37:17.324Z,79.58
2019-03-29T02:38:17.356Z,79.66
2019-03-29T02:39:17.611Z,78.88
2019-03-29T02:40:17.428Z,79.1
2019-03-29T02:41:19.855Z,78.93
2019-03-29T02:42:17.320Z,78.52
2019-03-29T02:43:17.538Z,78.4
2019-03-29T02:44:17.539Z,78.34
2019-03-29T02:45:17.699Z,78.29
2019-03-29T02:46:17.335Z,79.58
2019-03-29T02:47:17.355Z,79.4
2019-03-29T02:48:17.561Z,80.17
2019-03-29T02:49:17.317Z,79.13
2019-03-29T02:50:17.350Z,79.93
2019-03-29T02:51:17.421Z,79.97
2019-03-29T02:52:17.276Z,80.12
2019-03-29T02:53:17.342Z,80.44
2019-03-29T02:54:17.343Z,79.6
2019-03-29T02:55:17.325Z,79.03
2019-03-29T02:56:17.376Z,79.94
2019-03-29T02:57:17.414Z,79.92
2019-03-29T02:58:17.329Z,79.54
2019-03-29T02:59:17.284Z,79.87
2019-03-29T03:00:17.309Z,79.96
2019-03-29T03:01:17.278Z,79.38
2019-03-29T03:02:17.341Z,79.25
2019-03-29T03:03:17.308Z,79.98
2019-03-29T03:04:17.402Z,80.2
2019-03-29T03:05:17.284Z,80.65
2019-03-29T03:06:17.824Z,81
2019-03-29T03:07:17.302Z,80.7
2019-03-29T03:08:17.314Z,80.7
2019-03-29T03:09:17.297Z,80.06
2019-03-29T03:10:17.348Z,80.23
2019-03-29T03:11:17.328Z,80.2
2019-03-29T03:12:18.638Z,80.31
2019-03-29T03:13:17.291Z,80.37
2019-03-29T03:14:17.351Z,79.78
2019-03-29T03:15:17.313Z,80.17
2019-03-29T03:16:17.263Z,79.97
2019-03-29T03:17:17.299Z,79.8
2019-03-29T03:18:17.238Z,79.49
2019-03-29T03:19:17.294Z,79.28
2019-03-29T03:20:17.261Z,79.57
2019-03-29T03:21:17.483Z,79.76
2019-03-29T03:22:17.262Z,79.7
2019-03-29T03:23:17.432Z,79.97
2019-03-29T03:24:17.287Z,79.3
2019-03-29T03:25:17.241Z,79.64
2019-03-29T03:26:17.271Z,79.16
2019-03-29T03:27:17.289Z,78.93
2019-03-29T03:28:17.384Z,79.23
2019-03-29T03:29:17.263Z,78.86
2019-03-29T03:30:17.314Z,79.15
2019-03-29T03:31:17.424Z,79.58
2019-03-29T03:32:17.386Z,79.37
2019-03-29T03:33:17.329Z,79.56
2019-03-29T03:34:17.292Z,78.96
2019-03-29T03:35:17.354Z,78.72
2019-03-29T03:36:17.290Z,78.63
2019-03-29T03:37:17.296Z,78.54
2019-03-29T03:38:17.272Z,79.14
2019-03-29T03:39:32.878Z,79.69
2019-03-29T03:40:17.283Z,79.3
2019-03-29T03:41:17.233Z,78.89
2019-03-29T03:42:17.252Z,78.58
2019-03-29T03:43:17.211Z,79.42
2019-03-29T03:44:17.250Z,79.16
2019-03-29T03:45:17.205Z,79.01
2019-03-29T03:46:17.246Z,80.49
2019-03-29T03:47:17.199Z,80.68
2019-03-29T03:48:17.237Z,80.97
2019-03-29T03:49:17.206Z,81.08
2019-03-29T03:50:17.262Z,80.91
2019-03-29T03:51:17.198Z,80.13
2019-03-29T03:52:19.634Z,79.94
2019-03-29T03:53:17.189Z,79.53
2019-03-29T03:54:17.232Z,79.38
2019-03-29T03:55:17.215Z,79.28
2019-03-29T03:56:17.180Z,79.43
2019-03-29T03:57:17.210Z,80.03
2019-03-29T03:58:17.216Z,79.67
2019-03-29T03:59:17.237Z,80.03
2019-03-29T04:00:17.454Z,79.61
2019-03-29T04:01:17.206Z,80.22
2019-03-29T04:02:17.218Z,80.48
2019-03-29T04:03:17.207Z,80.57
2019-03-29T04:04:17.238Z,80.62
2019-03-29T04:05:17.286Z,80.56
2019-03-29T04:06:17.232Z,80.97
2019-03-29T04:07:17.221Z,80.95
2019-03-29T04:08:17.234Z,81.09
2019-03-29T04:09:17.240Z,80.76
2019-03-29T04:10:17.209Z,80.65
2019-03-29T04:11:17.614Z,80.41
2019-03-29T04:12:18.287Z,80.51
2019-03-29T04:13:17.195Z,80.11
2019-03-29T04:14:17.197Z,80.05
2019-03-29T04:15:17.203Z,79.74
2019-03-29T04:16:17.391Z,80.4
2019-03-29T04:17:18.074Z,80.67
2019-03-29T04:18:17.288Z,80.82
2019-03-29T04:19:17.294Z,80.68
2019-03-29T04:20:17.182Z,80.66
2019-03-29T04:21:17.360Z,80.8
2019-03-29T04:22:17.212Z,80.84
2019-03-29T04:23:18.232Z,80.94
2019-03-29T04:24:17.384Z,81.2
2019-03-29T04:25:17.259Z,81.19
2019-03-29T04:26:17.156Z,81.08
2019-03-29T04:27:17.189Z,81.26
2019-03-29T04:28:17.194Z,81.25
2019-03-29T04:29:17.228Z,81.06
2019-03-29T04:30:17.157Z,81.33
2019-03-29T04:31:17.295Z,81.07
2019-03-29T04:32:17.146Z,81.41
2019-03-29T04:33:17.259Z,81.71
2019-03-29T04:34:17.211Z,82.03
2019-03-29T04:35:17.213Z,82.23
2019-03-29T04:36:18.560Z,82.2
2019-03-29T04:37:17.141Z,82.31
2019-03-29T04:38:17.154Z,82.07
2019-03-29T04:39:17.164Z,82.25
2019-03-29T04:40:17.162Z,82.22
2019-03-29T04:41:17.161Z,82.48
2019-03-29T04:42:17.140Z,82.42
2019-03-29T04:43:17.191Z,82.19
2019-03-29T04:44:17.133Z,81.85
2019-03-29T04:45:17.176Z,82.15
2019-03-29T04:46:17.177Z,81.72
2019-03-29T04:47:17.166Z,82.04
2019-03-29T04:48:17.187Z,81.98
2019-03-29T04:49:17.096Z,82.23
2019-03-29T04:50:17.097Z,82.18
2019-03-29T04:51:17.127Z,82.24
2019-03-29T04:52:17.150Z,82.61
2019-03-29T04:53:17.202Z,82.56
2019-03-29T04:54:17.521Z,82.5
2019-03-29T04:55:17.162Z,82.91
2019-03-29T04:56:17.298Z,82.47
2019-03-29T04:57:17.217Z,82.6
2019-03-29T04:58:17.102Z,82.81
2019-03-29T04:59:17.112Z,82.81
2019-03-29T05:00:17.115Z,82.75
2019-03-29T05:01:17.737Z,82.75
2019-03-29T05:02:17.232Z,82.57
2019-03-29T05:03:17.107Z,82.37
2019-03-29T05:04:17.210Z,82.29
2019-03-29T05:05:17.184Z,82.17
2019-03-29T05:06:17.087Z,81.61
2019-03-29T05:07:17.156Z,82.13
2019-03-29T05:08:17.090Z,81.53
2019-03-29T05:09:17.118Z,81.77
2019-03-29T05:10:22.181Z,81.59
2019-03-29T05:11:17.122Z,82.09
2019-03-29T05:12:17.067Z,81.61
2019-03-29T05:13:17.128Z,81.91
2019-03-29T05:14:17.080Z,82.07
2019-03-29T05:15:17.067Z,82.29
2019-03-29T05:16:17.719Z,81.67
2019-03-29T05:17:17.103Z,81.75
2019-03-29T05:18:17.116Z,81.72
2019-03-29T05:19:17.199Z,81.55
2019-03-29T05:20:17.065Z,81.91
2019-03-29T05:21:17.096Z,81.96
2019-03-29T05:22:17.102Z,81.95
2019-03-29T05:23:17.077Z,81.38
2019-03-29T05:24:17.082Z,81.95
2019-03-29T05:25:17.162Z,81.96
2019-03-29T05:26:17.053Z,82.05
2019-03-29T05:27:17.122Z,82.06
2019-03-29T05:28:17.089Z,81.92
2019-03-29T05:29:17.134Z,82.06
2019-03-29T05:30:17.116Z,81.95
2019-03-29T05:31:17.110Z,81.65
2019-03-29T05:32:18.166Z,81.25
2019-03-29T05:33:17.098Z,81.88
2019-03-29T05:34:17.083Z,81.58
2019-03-29T05:35:17.071Z,81.17
2019-03-29T05:36:17.102Z,81.2
2019-03-29T05:37:17.058Z,81.48
2019-03-29T05:38:17.267Z,81.15
2019-03-29T05:39:17.035Z,82.36
2019-03-29T05:40:17.087Z,81.85
2019-03-29T05:41:17.073Z,81.92
2019-03-29T05:42:17.039Z,81.91
2019-03-29T05:43:17.138Z,82.03
2019-03-29T05:44:17.055Z,81.46
2019-03-29T05:45:17.061Z,81.62
2019-03-29T05:46:17.124Z,81.7
2019-03-29T05:47:17.089Z,81.42
2019-03-29T05:48:17.026Z,81.91
2019-03-29T05:49:17.111Z,81.33
2019-03-29T05:50:17.017Z,81.4
2019-03-29T05:51:17.062Z,81.25
2019-03-29T05:52:17.025Z,81.08
2019-03-29T05:53:18.391Z,81.31
2019-03-29T05:54:17.140Z,81.84
2019-03-29T05:55:17.092Z,81.52
2019-03-29T05:56:17.026Z,81.77
2019-03-29T05:57:17.084Z,81.23
2019-03-29T05:58:17.052Z,81.57
2019-03-29T05:59:17.281Z,82.36
2019-03-29T06:00:17.163Z,81.95
2019-03-29T06:01:17.118Z,82.22
2019-03-29T06:02:16.998Z,81.9
2019-03-29T06:03:17.051Z,82.24
2019-03-29T06:04:17.117Z,82.59
2019-03-29T06:05:16.996Z,82.83
2019-03-29T06:06:17.024Z,83.26
2019-03-29T06:07:17.063Z,83.21
2019-03-29T06:08:17.031Z,83.38
2019-03-29T06:09:17.062Z,84.56
2019-03-29T06:10:17.000Z,85.12
2019-03-29T06:11:17.111Z,84.77
2019-03-29T06:12:17.014Z,85.78
2019-03-29T06:13:17.084Z,84.9
2019-03-29T06:14:17.068Z,85.49
2019-03-29T06:15:16.996Z,85.03
2019-03-29T06:16:17.057Z,85.24
2019-03-29T06:17:17.022Z,85.82
2019-03-29T06:18:17.003Z,85.72
2019-03-29T06:19:16.972Z,85.55
2019-03-29T06:20:17.251Z,85.28
2019-03-29T06:21:17.065Z,85.29
2019-03-29T06:22:17.112Z,84.69
2019-03-29T06:23:17.043Z,84.67
2019-03-29T06:24:17.036Z,84.82
2019-03-29T06:25:17.071Z,84.46
2019-03-29T06:26:17.043Z,84.6
2019-03-29T06:27:16.999Z,84.23
2019-03-29T06:28:17.107Z,84.47
2019-03-29T06:29:16.989Z,84.34
2019-03-29T06:30:16.998Z,84.09
2019-03-29T06:31:16.951Z,83.95
2019-03-29T06:32:16.986Z,83.39
2019-03-29T06:33:17.038Z,83.78
2019-03-29T06:34:17.014Z,83.62
2019-03-29T06:35:17.007Z,83.79
2019-03-29T06:36:17.109Z,83.44
2019-03-29T06:37:16.998Z,83.51
2019-03-29T06:38:17.006Z,83.36
2019-03-29T06:39:16.974Z,83.19
2019-03-29T06:40:16.983Z,82.96
2019-03-29T06:41:17.230Z,83.45
2019-03-29T06:42:17.524Z,82.94
2019-03-29T06:43:17.191Z,83.03
2019-03-29T06:44:17.002Z,82.89
2019-03-29T06:45:17.002Z,82.86
2019-03-29T06:46:16.952Z,82.79
2019-03-29T06:47:17.142Z,82.94
2019-03-29T06:48:17.071Z,82.44
2019-03-29T06:49:16.996Z,82.45
2019-03-29T06:50:17.006Z,82.44
2019-03-29T06:51:17.098Z,82.19
2019-03-29T06:52:18.145Z,82.34
2019-03-29T06:53:16.973Z,81.97
2019-03-29T06:54:17.009Z,82.08
2019-03-29T06:55:16.979Z,81.93
2019-03-29T06:56:16.968Z,81.73
2019-03-29T06:57:16.981Z,81.69
2019-03-29T06:58:16.928Z,81.77
2019-03-29T06:59:17.006Z,81.12
2019-03-29T07:00:16.932Z,81.19
2019-03-29T07:01:17.045Z,81.22
2019-03-29T07:02:16.960Z,81.46
2019-03-29T07:03:16.957Z,81.08
2019-03-29T07:04:17.031Z,80.96
2019-03-29T07:05:16.954Z,80.98
2019-03-29T07:06:16.988Z,80.9
2019-03-29T07:07:16.965Z,80.76
2019-03-29T07:08:16.971Z,80.64
2019-03-29T07:09:16.926Z,80.37
2019-03-29T07:10:16.947Z,80.5
2019-03-29T07:11:18.441Z,80.36
2019-03-29T07:12:16.996Z,80.47
2019-03-29T07:13:16.992Z,80.35
2019-03-29T07:14:16.942Z,80.39
2019-03-29T07:15:17.006Z,80.17
2019-03-29T07:16:16.995Z,80.02
2019-03-29T07:17:16.952Z,79.98
2019-03-29T07:18:16.917Z,80
2019-03-29T07:19:16.900Z,79.78
2019-03-29T07:20:18.290Z,79.49
2019-03-29T07:21:22.491Z,79.41
2019-03-29T07:22:16.909Z,79.41
2019-03-29T07:23:16.946Z,79.35
2019-03-29T07:24:17.098Z,79.24
2019-03-29T07:25:17.306Z,78.92
2019-03-29T07:26:16.932Z,79.14
2019-03-29T07:27:16.918Z,78.91
2019-03-29T07:28:16.899Z,78.71
2019-03-29T07:29:16.907Z,78.6
2019-03-29T07:30:16.896Z,78.28
2019-03-29T07:31:17.021Z,78.48
2019-03-29T07:32:16.884Z,78.27
2019-03-29T07:33:16.932Z,78.05
2019-03-29T07:34:16.973Z,78.19
2019-03-29T07:35:16.933Z,77.83
2019-03-29T07:36:16.965Z,77.95
2019-03-29T07:37:17.803Z,77.96
2019-03-29T07:38:16.912Z,77.83
2019-03-29T07:39:17.768Z,77.87
2019-03-29T07:40:16.931Z,77.48
2019-03-29T07:41:32.789Z,77.37
2019-03-29T07:42:16.893Z,77.43
2019-03-29T07:43:16.874Z,77.35
2019-03-29T07:44:16.936Z,77.08
2019-03-29T07:45:16.880Z,77.43
2019-03-29T07:46:17.242Z,77.21
2019-03-29T07:47:16.927Z,76.57
2019-03-29T07:48:16.889Z,76.84
2019-03-29T07:49:16.960Z,76.78
2019-03-29T07:50:19.602Z,76.75
2019-03-29T07:51:16.904Z,76.17
2019-03-29T07:52:16.881Z,76.33
2019-03-29T07:53:16.860Z,76.07
2019-03-29T07:54:16.990Z,76.33
2019-03-29T07:55:17.023Z,75.99
2019-03-29T07:56:16.875Z,76.48
2019-03-29T07:57:18.208Z,76.4
2019-03-29T07:58:16.834Z,76
2019-03-29T07:59:18.248Z,75.5
2019-03-29T08:00:20.958Z,75.46
2019-03-29T08:01:16.867Z,75.6
2019-03-29T08:02:16.957Z,75.3
2019-03-29T08:03:16.838Z,75.27
2019-03-29T08:04:16.858Z,75.14
2019-03-29T08:05:18.526Z,74.74
2019-03-29T08:06:16.872Z,74.91
2019-03-29T08:07:31.606Z,74.28
2019-03-29T08:08:34.455Z,74.45
2019-03-29T08:09:23.035Z,74.36
2019-03-29T08:10:32.147Z,74.25
2019-03-29T08:11:28.682Z,74.25
2019-03-29T08:12:16.943Z,74.41
2019-03-29T08:13:16.818Z,74.58
2019-03-29T08:14:16.879Z,74.62
2019-03-29T08:15:16.840Z,73.97
2019-03-29T08:16:16.814Z,73.81
2019-03-29T08:17:16.816Z,73.7
2019-03-29T08:18:16.836Z,73.47
2019-03-29T08:19:18.594Z,73.35
2019-03-29T08:20:44.954Z,73.29
2019-03-29T08:21:16.897Z,73.22
2019-03-29T08:22:16.879Z,73.05
2019-03-29T08:23:17.077Z,73.34
2019-03-29T08:24:16.864Z,72.88
2019-03-29T08:25:16.878Z,72.8
2019-03-29T08:26:16.850Z,73.04
2019-03-29T08:27:16.885Z,72.98
2019-03-29T08:28:16.795Z,72.64
2019-03-29T08:29:17.132Z,72.55
2019-03-29T08:30:16.801Z,72.33
2019-03-29T08:31:16.963Z,72.48
2019-03-29T08:32:17.754Z,72.96
2019-03-29T08:33:16.831Z,72.12
2019-03-29T08:34:16.831Z,72.12
2019-03-29T08:35:16.870Z,72.01
2019-03-29T08:36:16.792Z,71.54
2019-03-29T08:37:16.903Z,71.71
2019-03-29T08:38:16.807Z,71.02
2019-03-29T08:39:28.718Z,71.27
2019-03-29T08:40:16.792Z,71.13
2019-03-29T08:41:16.823Z,71.26
2019-03-29T08:42:19.186Z,71.79
2019-03-29T08:43:16.818Z,71.73
2019-03-29T08:44:16.888Z,71.66
2019-03-29T08:45:16.858Z,71.22
2019-03-29T08:46:16.823Z,71.31
2019-03-29T08:47:16.787Z,71.35
2019-03-29T08:48:16.815Z,71.09
2019-03-29T08:49:17.420Z,70.64
2019-03-29T08:50:16.920Z,71.19
2019-03-29T08:51:17.078Z,70.32
2019-03-29T08:52:16.882Z,70.42
2019-03-29T08:53:16.910Z,70.04
2019-03-29T08:54:16.826Z,70.5
2019-03-29T08:55:18.123Z,70.19
2019-03-29T08:56:16.804Z,69.9
2019-03-29T08:57:16.804Z,69.9
2019-03-29T08:58:16.864Z,70.3
2019-03-29T08:59:18.098Z,69.75
2019-03-29T09:00:18.261Z,69.69
2019-03-29T09:01:20.031Z,68.93
2019-03-29T09:02:16.863Z,69.03
2019-03-29T09:03:16.748Z,69.01
2019-03-29T09:04:16.793Z,68.64
2019-03-29T09:05:16.795Z,68.44
2019-03-29T09:06:16.748Z,68.2
2019-03-29T09:07:16.773Z,67.84
2019-03-29T09:08:16.804Z,68.27
2019-03-29T09:09:16.811Z,68.51
2019-03-29T09:10:16.844Z,68.12
2019-03-29T09:11:16.777Z,67.86
2019-03-29T09:12:16.785Z,68.18
2019-03-29T09:13:16.848Z,67.82
2019-03-29T09:14:16.741Z,67.71
2019-03-29T09:15:16.757Z,67.26
2019-03-29T09:16:16.808Z,67.63
2019-03-29T09:17:16.793Z,66.82
2019-03-29T09:18:16.767Z,66.58
2019-03-29T09:19:16.780Z,66.66
2019-03-29T09:20:16.755Z,66.88
2019-03-29T09:21:16.773Z,66.52
2019-03-29T09:22:16.960Z,66.2
2019-03-29T09:23:16.767Z,65.52
2019-03-29T09:24:22.840Z,65.62
2019-03-29T09:25:16.747Z,65.37
2019-03-29T09:26:16.718Z,64.75
2019-03-29T09:27:16.802Z,64.33
2019-03-29T09:28:16.759Z,64.4
2019-03-29T09:29:17.835Z,64.57
2019-03-29T09:30:16.771Z,64.43
2019-03-29T09:31:16.730Z,64.01
2019-03-29T09:32:16.718Z,64.51
2019-03-29T09:33:16.761Z,64.38
2019-03-29T09:34:16.725Z,64.17
2019-03-29T09:35:16.749Z,64.47
2019-03-29T09:36:16.751Z,63.83
2019-03-29T09:37:16.732Z,64.15
2019-03-29T09:38:16.713Z,64.57
2019-03-29T09:39:16.696Z,64.63
2019-03-29T09:40:16.713Z,64.47
2019-03-29T09:41:16.706Z,64.77
2019-03-29T09:42:30.778Z,63.97
2019-03-29T09:43:16.700Z,63.48
2019-03-29T09:44:18.486Z,63.2
2019-03-29T09:45:16.745Z,63.29
2019-03-29T09:46:16.691Z,63.54
2019-03-29T09:47:16.730Z,63.48
2019-03-29T09:48:16.719Z,63.76
2019-03-29T09:49:16.951Z,64.02
2019-03-29T09:50:16.694Z,64.04
2019-03-29T09:51:16.704Z,63.77
2019-03-29T09:52:16.693Z,63.57
2019-03-29T09:53:16.725Z,63.5
2019-03-29T09:54:20.903Z,62.8
2019-03-29T09:55:19.418Z,62.61
2019-03-29T09:56:19.762Z,62.23
2019-03-29T09:57:16.675Z,62.01
2019-03-29T09:58:17.227Z,62.5
2019-03-29T09:59:16.852Z,62.34
2019-03-29T10:00:24.117Z,62.09
2019-03-29T10:01:21.322Z,62.02
2019-03-29T10:02:16.737Z,61.5
2019-03-29T10:03:16.925Z,61.45
2019-03-29T10:04:16.693Z,61.06
2019-03-29T10:05:20.738Z,60.98
2019-03-29T10:06:16.718Z,61.01
2019-03-29T10:07:16.693Z,61.3
2019-03-29T10:08:16.709Z,61.13
2019-03-29T10:09:16.691Z,61.2
2019-03-29T10:10:16.755Z,61.6
2019-03-29T10:11:16.698Z,60.67
2019-03-29T10:12:16.756Z,59.43
2019-03-29T10:13:16.781Z,59.15
2019-03-29T10:14:17.523Z,58.14
2019-03-29T10:15:16.686Z,58.7
2019-03-29T10:16:16.723Z,57.82
2019-03-29T10:17:16.818Z,57.99
2019-03-29T10:18:16.690Z,58.01
2019-03-29T10:19:16.659Z,58.38
2019-03-29T10:20:16.673Z,58
2019-03-29T10:21:17.822Z,58.45
2019-03-29T10:22:16.756Z,58.19
2019-03-29T10:23:17.950Z,58.29
2019-03-29T10:24:16.668Z,58.8
2019-03-29T10:25:20.674Z,58.72
2019-03-29T10:26:16.639Z,58.34
2019-03-29T10:27:19.502Z,57.53
2019-03-29T10:28:16.675Z,58.09
2019-03-29T10:29:16.729Z,58.24
2019-03-29T10:30:16.691Z,57.55
2019-03-29T10:31:33.043Z,56.64
2019-03-29T10:32:16.633Z,56.05
2019-03-29T10:33:16.673Z,57.53
2019-03-29T10:34:16.622Z,56.41
2019-03-29T10:35:16.688Z,56.24
2019-03-29T10:36:16.669Z,55.58
2019-03-29T10:37:16.710Z,55.82
2019-03-29T10:38:18.882Z,55.6
2019-03-29T10:39:16.635Z,55.79
2019-03-29T10:40:16.687Z,55.25
2019-03-29T10:41:16.714Z,56.13
2019-03-29T10:42:16.632Z,55.22
2019-03-29T10:43:16.720Z,56.41
2019-03-29T10:44:16.685Z,55.86
2019-03-29T10:45:16.695Z,55.4
2019-03-29T10:46:16.629Z,55.78
2019-03-29T10:47:16.728Z,56.61
2019-03-29T10:48:18.006Z,56.53
2019-03-29T10:49:16.836Z,56.91
2019-03-29T10:50:16.618Z,56.69
2019-03-29T10:51:16.691Z,56.81
2019-03-29T10:52:16.649Z,56.26
2019-03-29T10:53:16.637Z,55.86
2019-03-29T10:54:16.644Z,55.86
2019-03-29T10:55:16.678Z,55.19
2019-03-29T10:56:17.979Z,55.71
2019-03-29T10:57:16.623Z,55.97
2019-03-29T10:58:16.595Z,55.15
2019-03-29T10:59:28.287Z,54.5
2019-03-29T11:00:16.710Z,53.78
2019-03-29T11:01:16.643Z,53.7
2019-03-29T11:02:16.594Z,54.62
2019-03-29T11:03:16.651Z,55.39
2019-03-29T11:04:16.590Z,55.83
2019-03-29T11:05:16.684Z,54.7
2019-03-29T11:06:16.651Z,54.06
2019-03-29T11:07:16.611Z,54.58
2019-03-29T11:08:16.598Z,53.95
2019-03-29T11:09:16.647Z,54.48
2019-03-29T11:10:16.638Z,54.28
2019-03-29T11:11:16.617Z,54.06
2019-03-29T11:12:16.587Z,54.23
2019-03-29T11:13:16.588Z,54.95
2019-03-29T11:14:16.575Z,54.44
2019-03-29T11:15:16.568Z,53.85
2019-03-29T11:16:16.685Z,54.71
2019-03-29T11:17:16.595Z,53.41
2019-03-29T11:18:16.655Z,53.53
2019-03-29T11:19:16.575Z,53.95
2019-03-29T11:20:19.005Z,53.49
2019-03-29T11:21:16.771Z,53.01
2019-03-29T11:22:16.930Z,53.04
2019-03-29T11:23:16.626Z,52.98
2019-03-29T11:24:16.686Z,53.02
2019-03-29T11:25:16.647Z,53.52
2019-03-29T11:26:16.601Z,52.73
2019-03-29T11:27:16.629Z,53.2
2019-03-29T11:28:16.586Z,53.03
2019-03-29T11:29:16.541Z,53.21
2019-03-29T11:30:16.583Z,52.94
2019-03-29T11:31:16.621Z,51.99
2019-03-29T11:32:16.614Z,51.07
2019-03-29T11:33:16.628Z,51.51
2019-03-29T11:34:16.592Z,51.35
2019-03-29T11:35:16.602Z,51.35
2019-03-29T11:36:16.596Z,51.35
2019-03-29T11:37:16.554Z,51.28
2019-03-29T11:38:16.628Z,50.72
2019-03-29T11:39:16.584Z,51.76
2019-03-29T11:40:16.584Z,50.84
2019-03-29T11:41:16.560Z,51.12
2019-03-29T11:42:16.609Z,50.73
2019-03-29T11:43:27.655Z,50.56
2019-03-29T11:44:16.603Z,50.37
2019-03-29T11:45:16.609Z,50.91
2019-03-29T11:46:16.582Z,50.98
2019-03-29T11:47:16.613Z,50.31
2019-03-29T11:48:16.580Z,50.31
2019-03-29T11:49:16.603Z,50.23
2019-03-29T11:50:16.563Z,50.02
2019-03-29T11:51:20.278Z,49.45
2019-03-29T11:52:16.573Z,49.41
2019-03-29T11:53:16.569Z,49.19
2019-03-29T11:54:16.542Z,48.65
2019-03-29T11:55:16.747Z,49.2
2019-03-29T11:56:16.551Z,49.47
2019-03-29T11:57:16.619Z,49.92
2019-03-29T11:58:16.567Z,49.36
2019-03-29T11:59:16.566Z,49.88
2019-03-29T12:00:16.546Z,49.53
2019-03-29T12:01:16.548Z,50.32
2019-03-29T12:02:31.963Z,49.67
2019-03-29T12:03:16.565Z,49.82
2019-03-29T12:04:16.584Z,49.27
2019-03-29T12:05:16.549Z,48.3
2019-03-29T12:06:16.594Z,48.15
2019-03-29T12:07:16.527Z,48
2019-03-29T12:08:16.527Z,48.92
2019-03-29T12:09:16.546Z,48.07
2019-03-29T12:10:16.547Z,48.32
2019-03-29T12:11:16.580Z,48.09
2019-03-29T12:12:16.517Z,47.54
2019-03-29T12:13:16.572Z,46.14
2019-03-29T12:14:16.512Z,46.33
2019-03-29T12:15:16.506Z,46.75
2019-03-29T12:16:16.509Z,46.34
2019-03-29T12:17:16.513Z,45.73
2019-03-29T12:18:16.539Z,45.98
2019-03-29T12:19:16.509Z,46.32
2019-03-29T12:20:16.550Z,46.43
2019-03-29T12:21:16.513Z,46.35
2019-03-29T12:22:16.533Z,46.7
2019-03-29T12:23:16.502Z,46.57
2019-03-29T12:24:16.495Z,45.93
2019-03-29T12:25:16.570Z,45.6
2019-03-29T12:26:16.515Z,45.88
2019-03-29T12:27:16.577Z,44.92
2019-03-29T12:28:16.497Z,46.73
2019-03-29T12:29:16.582Z,45.62
2019-03-29T12:30:32.627Z,46.47
2019-03-29T12:31:16.538Z,46.36
2019-03-29T12:32:16.510Z,47.05
2019-03-29T12:33:16.551Z,46.44
2019-03-29T12:34:16.560Z,46.33
2019-03-29T12:35:16.590Z,46.03
2019-03-29T12:36:16.514Z,45.05
2019-03-29T12:37:17.881Z,44.93
2019-03-29T12:38:16.481Z,44.67
2019-03-29T12:39:16.487Z,44.57
2019-03-29T12:40:16.524Z,44.55
2019-03-29T12:41:16.528Z,44.6
2019-03-29T12:42:16.476Z,45.11
2019-03-29T12:43:16.595Z,44.96
2019-03-29T12:44:16.572Z,45.29
2019-03-29T12:45:16.495Z,44.62
2019-03-29T12:46:16.515Z,44.69
2019-03-29T12:47:16.645Z,44.78
2019-03-29T12:48:16.525Z,44.34
2019-03-29T12:49:16.592Z,44.93
2019-03-29T12:50:16.500Z,43.78
2019-03-29T12:51:16.465Z,44.04
2019-03-29T12:52:16.610Z,43.73
2019-03-29T12:53:16.472Z,43.31
2019-03-29T12:54:16.542Z,43.75
2019-03-29T12:55:16.457Z,42.31
2019-03-29T12:56:16.492Z,42.91